sensor_id;sensor_type;location;lat;lon;timestamp;temperature;humidity
3602;DHT22;1815;50.950;6.920;2023-11-21T00:00:17;11.70;99.90
3602;DHT22;1815;50.950;6.920;2023-11-21T00:02:44;11.70;99.90
3602;DHT22;1815;50.950;6.920;2023-11-21T00:05:12;11.70;99.90
3602;DHT22;1815;50.950;6.920;2023-11-21T00:07:40;11.70;99.90
3602;DHT22;1815;50.950;6.920;2023-11-21T00:10:06;11.60;99.90
3602;DHT22;1815;50.950;6.920;2023-11-21T00:12:34;11.60;99.90
3602;DHT22;1815;50.950;6.920;2023-11-21T00:15:00;11.60;99.90
3602;DHT22;1815;50.950;6.920;2023-11-21T00:17:27;11.70;99.90
3602;DHT22;1815;50.950;6.920;2023-11-21T00:19:53;11.70;99.90
3602;DHT22;1815;50.950;6.920;2023-11-21T00:22:19;11.70;99.90
3602;DHT22;1815;50.950;6.920;2023-11-21T00:24:45;11.60;99.90
3602;DHT22;1815;50.950;6.920;2023-11-21T00:27:11;11.60;99.90
3602;DHT22;1815;50.950;6.920;2023-11-21T00:29:37;11.60;99.90
3602;DHT22;1815;50.950;6.920;2023-11-21T00:32:06;11.60;99.90
3602;DHT22;1815;50.950;6.920;2023-11-21T00:34:32;11.60;99.90
3602;DHT22;1815;50.950;6.920;2023-11-21T00:36:58;11.60;99.90
3602;DHT22;1815;50.950;6.920;2023-11-21T00:39:24;11.60;99.90
3602;DHT22;1815;50.950;6.920;2023-11-21T00:41:51;11.60;99.90
3602;DHT22;1815;50.950;6.920;2023-11-21T00:44:18;11.60;99.90
3602;DHT22;1815;50.950;6.920;2023-11-21T00:46:43;11.60;99.90
3602;DHT22;1815;50.950;6.920;2023-11-21T00:49:09;11.60;99.90
3602;DHT22;1815;50.950;6.920;2023-11-21T00:51:35;11.60;99.90
3602;DHT22;1815;50.950;6.920;2023-11-21T00:54:02;11.60;99.90
3602;DHT22;1815;50.950;6.920;2023-11-21T00:56:28;11.60;99.90
3602;DHT22;1815;50.950;6.920;2023-11-21T00:58:53;11.60;99.90
3602;DHT22;1815;50.950;6.920;2023-11-21T01:01:20;11.60;99.90
3602;DHT22;1815;50.950;6.920;2023-11-21T01:03:47;11.60;99.90
3602;DHT22;1815;50.950;6.920;2023-11-21T01:06:14;11.60;99.90
3602;DHT22;1815;50.950;6.920;2023-11-21T01:08:41;11.60;99.90
3602;DHT22;1815;50.950;6.920;2023-11-21T01:11:08;11.50;99.90
3602;DHT22;1815;50.950;6.920;2023-11-21T01:13:35;11.40;99.90
3602;DHT22;1815;50.950;6.920;2023-11-21T01:16:01;11.40;99.90
3602;DHT22;1815;50.950;6.920;2023-11-21T01:18:27;11.30;99.90
3602;DHT22;1815;50.950;6.920;2023-11-21T01:20:54;11.20;99.90
3602;DHT22;1815;50.950;6.920;2023-11-21T01:23:20;11.20;99.90
3602;DHT22;1815;50.950;6.920;2023-11-21T01:25:46;11.20;99.90
3602;DHT22;1815;50.950;6.920;2023-11-21T01:28:12;11.20;99.90
3602;DHT22;1815;50.950;6.920;2023-11-21T01:30:37;11.20;99.90
3602;DHT22;1815;50.950;6.920;2023-11-21T01:33:03;11.20;99.90
3602;DHT22;1815;50.950;6.920;2023-11-21T01:35:30;11.20;99.90
3602;DHT22;1815;50.950;6.920;2023-11-21T01:37:56;11.20;99.90
3602;DHT22;1815;50.950;6.920;2023-11-21T01:40:22;11.20;99.90
3602;DHT22;1815;50.950;6.920;2023-11-21T01:42:47;11.20;99.90
3602;DHT22;1815;50.950;6.920;2023-11-21T01:45:14;11.20;99.90
3602;DHT22;1815;50.950;6.920;2023-11-21T01:47:41;11.20;99.90
3602;DHT22;1815;50.950;6.920;2023-11-21T01:50:08;11.30;99.90
3602;DHT22;1815;50.950;6.920;2023-11-21T01:52:38;11.30;99.90
3602;DHT22;1815;50.950;6.920;2023-11-21T01:55:06;11.30;99.90
3602;DHT22;1815;50.950;6.920;2023-11-21T01:57:35;11.30;99.90
3602;DHT22;1815;50.950;6.920;2023-11-21T02:00:02;11.30;99.90
3602;DHT22;1815;50.950;6.920;2023-11-21T02:02:49;11.30;99.90
3602;DHT22;1815;50.950;6.920;2023-11-21T02:05:16;11.30;99.90
3602;DHT22;1815;50.950;6.920;2023-11-21T02:07:45;11.20;99.90
3602;DHT22;1815;50.950;6.920;2023-11-21T02:10:14;11.20;99.90
3602;DHT22;1815;50.950;6.920;2023-11-21T02:12:44;11.20;99.90
3602;DHT22;1815;50.950;6.920;2023-11-21T02:15:10;11.10;99.90
3602;DHT22;1815;50.950;6.920;2023-11-21T02:17:42;11.10;99.90
3602;DHT22;1815;50.950;6.920;2023-11-21T02:20:10;11.10;99.90
3602;DHT22;1815;50.950;6.920;2023-11-21T02:22:42;11.10;99.90
3602;DHT22;1815;50.950;6.920;2023-11-21T02:25:08;11.10;99.90
3602;DHT22;1815;50.950;6.920;2023-11-21T02:27:34;11.10;99.90
3602;DHT22;1815;50.950;6.920;2023-11-21T02:30:00;11.10;99.90
3602;DHT22;1815;50.950;6.920;2023-11-21T02:32:26;11.20;99.90
3602;DHT22;1815;50.950;6.920;2023-11-21T02:34:52;11.20;99.90
3602;DHT22;1815;50.950;6.920;2023-11-21T02:37:21;11.20;99.90
3602;DHT22;1815;50.950;6.920;2023-11-21T02:39:47;11.20;99.90
3602;DHT22;1815;50.950;6.920;2023-11-21T02:42:12;11.20;99.90
3602;DHT22;1815;50.950;6.920;2023-11-21T02:44:38;11.30;99.90
3602;DHT22;1815;50.950;6.920;2023-11-21T02:47:04;11.30;99.90
3602;DHT22;1815;50.950;6.920;2023-11-21T02:49:30;11.40;99.90
3602;DHT22;1815;50.950;6.920;2023-11-21T02:51:56;11.40;99.90
3602;DHT22;1815;50.950;6.920;2023-11-21T02:54:22;11.40;99.90
3602;DHT22;1815;50.950;6.920;2023-11-21T02:56:48;11.40;99.90
3602;DHT22;1815;50.950;6.920;2023-11-21T02:59:15;11.40;99.90
3602;DHT22;1815;50.950;6.920;2023-11-21T03:01:41;11.40;99.90
3602;DHT22;1815;50.950;6.920;2023-11-21T03:04:08;11.50;99.90
3602;DHT22;1815;50.950;6.920;2023-11-21T03:06:33;11.50;99.90
3602;DHT22;1815;50.950;6.920;2023-11-21T03:08:59;11.50;99.90
3602;DHT22;1815;50.950;6.920;2023-11-21T03:11:25;11.50;99.90
3602;DHT22;1815;50.950;6.920;2023-11-21T03:13:51;11.50;99.90
3602;DHT22;1815;50.950;6.920;2023-11-21T03:16:18;11.50;99.90
3602;DHT22;1815;50.950;6.920;2023-11-21T03:18:45;11.50;99.90
3602;DHT22;1815;50.950;6.920;2023-11-21T03:21:12;11.50;99.90
3602;DHT22;1815;50.950;6.920;2023-11-21T03:23:38;11.50;99.90
3602;DHT22;1815;50.950;6.920;2023-11-21T03:26:04;11.50;99.90
3602;DHT22;1815;50.950;6.920;2023-11-21T03:28:30;11.50;99.90
3602;DHT22;1815;50.950;6.920;2023-11-21T03:30:56;11.50;99.90
3602;DHT22;1815;50.950;6.920;2023-11-21T03:33:23;11.50;99.90
3602;DHT22;1815;50.950;6.920;2023-11-21T03:35:49;11.50;99.90
3602;DHT22;1815;50.950;6.920;2023-11-21T03:38:15;11.50;99.90
3602;DHT22;1815;50.950;6.920;2023-11-21T03:40:42;11.50;99.90
3602;DHT22;1815;50.950;6.920;2023-11-21T03:43:07;11.50;99.90
3602;DHT22;1815;50.950;6.920;2023-11-21T03:45:33;11.50;99.90
3602;DHT22;1815;50.950;6.920;2023-11-21T03:47:59;11.50;99.90
3602;DHT22;1815;50.950;6.920;2023-11-21T03:50:31;11.50;99.90
3602;DHT22;1815;50.950;6.920;2023-11-21T03:52:57;11.50;99.90
3602;DHT22;1815;50.950;6.920;2023-11-21T03:55:22;11.50;99.90
3602;DHT22;1815;50.950;6.920;2023-11-21T03:57:52;11.40;99.90
3602;DHT22;1815;50.950;6.920;2023-11-21T04:00:20;11.40;99.90
3602;DHT22;1815;50.950;6.920;2023-11-21T04:02:46;11.40;99.90
3602;DHT22;1815;50.950;6.920;2023-11-21T04:05:12;11.40;99.90
3602;DHT22;1815;50.950;6.920;2023-11-21T04:07:38;11.40;99.90
3602;DHT22;1815;50.950;6.920;2023-11-21T04:10:05;11.40;99.90
3602;DHT22;1815;50.950;6.920;2023-11-21T04:12:34;11.40;99.90
3602;DHT22;1815;50.950;6.920;2023-11-21T04:15:00;11.40;99.90
3602;DHT22;1815;50.950;6.920;2023-11-21T04:17:26;11.40;99.90
3602;DHT22;1815;50.950;6.920;2023-11-21T04:19:52;11.40;99.90
3602;DHT22;1815;50.950;6.920;2023-11-21T04:22:17;11.40;99.90
3602;DHT22;1815;50.950;6.920;2023-11-21T04:24:43;11.40;99.90
3602;DHT22;1815;50.950;6.920;2023-11-21T04:27:09;11.40;99.90
3602;DHT22;1815;50.950;6.920;2023-11-21T04:29:34;11.40;99.90
3602;DHT22;1815;50.950;6.920;2023-11-21T04:32:01;11.40;99.90
3602;DHT22;1815;50.950;6.920;2023-11-21T04:34:28;11.30;99.90
3602;DHT22;1815;50.950;6.920;2023-11-21T04:36:57;11.40;99.90
3602;DHT22;1815;50.950;6.920;2023-11-21T04:39:22;11.40;99.90
3602;DHT22;1815;50.950;6.920;2023-11-21T04:41:49;11.40;99.90
3602;DHT22;1815;50.950;6.920;2023-11-21T04:44:15;11.40;99.90
3602;DHT22;1815;50.950;6.920;2023-11-21T04:46:41;11.40;99.90
3602;DHT22;1815;50.950;6.920;2023-11-21T04:49:07;11.30;99.90
3602;DHT22;1815;50.950;6.920;2023-11-21T04:51:33;11.30;99.90
3602;DHT22;1815;50.950;6.920;2023-11-21T04:53:59;11.30;99.90
3602;DHT22;1815;50.950;6.920;2023-11-21T04:56:25;11.40;99.90
3602;DHT22;1815;50.950;6.920;2023-11-21T04:58:50;11.30;99.90
3602;DHT22;1815;50.950;6.920;2023-11-21T05:01:16;11.30;99.90
3602;DHT22;1815;50.950;6.920;2023-11-21T05:03:42;11.30;99.90
3602;DHT22;1815;50.950;6.920;2023-11-21T05:06:10;11.30;99.90
3602;DHT22;1815;50.950;6.920;2023-11-21T05:08:36;11.30;99.90
3602;DHT22;1815;50.950;6.920;2023-11-21T05:11:02;11.30;99.90
3602;DHT22;1815;50.950;6.920;2023-11-21T05:13:28;11.30;99.90
3602;DHT22;1815;50.950;6.920;2023-11-21T05:15:55;11.30;99.90
3602;DHT22;1815;50.950;6.920;2023-11-21T05:18:22;11.20;99.90
3602;DHT22;1815;50.950;6.920;2023-11-21T05:20:48;11.20;99.90
3602;DHT22;1815;50.950;6.920;2023-11-21T05:23:14;11.20;99.90
3602;DHT22;1815;50.950;6.920;2023-11-21T05:25:39;11.20;99.90
3602;DHT22;1815;50.950;6.920;2023-11-21T05:28:07;11.20;99.90
3602;DHT22;1815;50.950;6.920;2023-11-21T05:30:32;11.20;99.90
3602;DHT22;1815;50.950;6.920;2023-11-21T05:32:58;11.20;99.90
3602;DHT22;1815;50.950;6.920;2023-11-21T05:35:24;11.20;99.90
3602;DHT22;1815;50.950;6.920;2023-11-21T05:37:49;11.20;99.90
3602;DHT22;1815;50.950;6.920;2023-11-21T05:40:15;11.20;99.90
3602;DHT22;1815;50.950;6.920;2023-11-21T05:42:41;11.20;99.90
3602;DHT22;1815;50.950;6.920;2023-11-21T05:45:08;11.20;99.90
3602;DHT22;1815;50.950;6.920;2023-11-21T05:47:38;11.20;99.90
3602;DHT22;1815;50.950;6.920;2023-11-21T05:50:06;11.20;99.90
3602;DHT22;1815;50.950;6.920;2023-11-21T05:52:36;11.20;99.90
3602;DHT22;1815;50.950;6.920;2023-11-21T05:55:03;11.20;99.90
3602;DHT22;1815;50.950;6.920;2023-11-21T05:57:30;11.20;99.90
3602;DHT22;1815;50.950;6.920;2023-11-21T05:59:56;11.20;99.90
3602;DHT22;1815;50.950;6.920;2023-11-21T06:02:21;11.20;99.90
3602;DHT22;1815;50.950;6.920;2023-11-21T06:04:47;11.20;99.90
3602;DHT22;1815;50.950;6.920;2023-11-21T06:07:13;11.20;99.90
3602;DHT22;1815;50.950;6.920;2023-11-21T06:09:38;11.20;99.90
3602;DHT22;1815;50.950;6.920;2023-11-21T06:12:04;11.20;99.90
3602;DHT22;1815;50.950;6.920;2023-11-21T06:14:31;11.20;99.90
3602;DHT22;1815;50.950;6.920;2023-11-21T06:16:58;11.20;99.90
3602;DHT22;1815;50.950;6.920;2023-11-21T06:19:24;11.20;99.90
3602;DHT22;1815;50.950;6.920;2023-11-21T06:21:50;11.20;99.90
3602;DHT22;1815;50.950;6.920;2023-11-21T06:24:16;11.20;99.90
3602;DHT22;1815;50.950;6.920;2023-11-21T06:26:42;11.20;99.90
3602;DHT22;1815;50.950;6.920;2023-11-21T06:29:09;11.20;99.90
3602;DHT22;1815;50.950;6.920;2023-11-21T06:31:36;11.20;99.90
3602;DHT22;1815;50.950;6.920;2023-11-21T06:34:02;11.20;99.90
3602;DHT22;1815;50.950;6.920;2023-11-21T06:36:28;11.30;99.90
3602;DHT22;1815;50.950;6.920;2023-11-21T06:38:54;11.20;99.90
3602;DHT22;1815;50.950;6.920;2023-11-21T06:41:20;11.20;99.90
3602;DHT22;1815;50.950;6.920;2023-11-21T06:43:46;11.20;99.90
3602;DHT22;1815;50.950;6.920;2023-11-21T06:46:12;11.20;99.90
3602;DHT22;1815;50.950;6.920;2023-11-21T06:48:43;11.20;99.90
3602;DHT22;1815;50.950;6.920;2023-11-21T06:51:09;11.20;99.90
3602;DHT22;1815;50.950;6.920;2023-11-21T06:53:36;11.20;99.90
3602;DHT22;1815;50.950;6.920;2023-11-21T06:56:03;11.20;99.90
3602;DHT22;1815;50.950;6.920;2023-11-21T06:58:29;11.20;99.90
3602;DHT22;1815;50.950;6.920;2023-11-21T07:00:54;11.20;99.90
3602;DHT22;1815;50.950;6.920;2023-11-21T07:03:20;11.20;99.90
3602;DHT22;1815;50.950;6.920;2023-11-21T07:05:46;11.20;99.90
3602;DHT22;1815;50.950;6.920;2023-11-21T07:08:11;11.20;99.90
3602;DHT22;1815;50.950;6.920;2023-11-21T07:10:38;11.20;99.90
3602;DHT22;1815;50.950;6.920;2023-11-21T07:13:04;11.20;99.90
3602;DHT22;1815;50.950;6.920;2023-11-21T07:15:29;11.20;99.90
3602;DHT22;1815;50.950;6.920;2023-11-21T07:17:55;11.30;99.90
3602;DHT22;1815;50.950;6.920;2023-11-21T07:20:21;11.30;99.90
3602;DHT22;1815;50.950;6.920;2023-11-21T07:22:47;11.30;99.90
3602;DHT22;1815;50.950;6.920;2023-11-21T07:25:13;11.30;99.90
3602;DHT22;1815;50.950;6.920;2023-11-21T07:27:39;11.30;99.90
3602;DHT22;1815;50.950;6.920;2023-11-21T07:30:05;11.40;99.90
3602;DHT22;1815;50.950;6.920;2023-11-21T07:32:33;11.40;99.90
3602;DHT22;1815;50.950;6.920;2023-11-21T07:34:59;11.40;99.90
3602;DHT22;1815;50.950;6.920;2023-11-21T07:37:26;11.50;99.90
3602;DHT22;1815;50.950;6.920;2023-11-21T07:39:55;11.50;99.90
3602;DHT22;1815;50.950;6.920;2023-11-21T07:42:23;11.60;99.90
3602;DHT22;1815;50.950;6.920;2023-11-21T07:44:51;11.60;99.90
3602;DHT22;1815;50.950;6.920;2023-11-21T07:47:17;11.60;99.90
3602;DHT22;1815;50.950;6.920;2023-11-21T07:49:43;11.70;99.90
3602;DHT22;1815;50.950;6.920;2023-11-21T07:52:10;11.70;99.90
3602;DHT22;1815;50.950;6.920;2023-11-21T07:54:37;11.70;99.90
3602;DHT22;1815;50.950;6.920;2023-11-21T07:57:03;11.80;99.90
3602;DHT22;1815;50.950;6.920;2023-11-21T07:59:30;11.80;99.90
3602;DHT22;1815;50.950;6.920;2023-11-21T08:01:58;11.80;99.90
3602;DHT22;1815;50.950;6.920;2023-11-21T08:04:23;11.90;99.90
3602;DHT22;1815;50.950;6.920;2023-11-21T08:06:49;11.90;99.90
3602;DHT22;1815;50.950;6.920;2023-11-21T08:09:15;12.00;99.90
3602;DHT22;1815;50.950;6.920;2023-11-21T08:11:43;12.00;99.90
3602;DHT22;1815;50.950;6.920;2023-11-21T08:14:08;12.10;99.90
3602;DHT22;1815;50.950;6.920;2023-11-21T08:16:34;12.10;99.90
3602;DHT22;1815;50.950;6.920;2023-11-21T08:18:59;12.20;99.90
3602;DHT22;1815;50.950;6.920;2023-11-21T08:21:26;12.20;99.90
3602;DHT22;1815;50.950;6.920;2023-11-21T08:23:54;12.20;99.90
3602;DHT22;1815;50.950;6.920;2023-11-21T08:26:21;12.30;99.90
3602;DHT22;1815;50.950;6.920;2023-11-21T08:28:47;12.30;99.90
3602;DHT22;1815;50.950;6.920;2023-11-21T08:31:13;12.30;99.90
3602;DHT22;1815;50.950;6.920;2023-11-21T08:33:39;12.30;99.90
3602;DHT22;1815;50.950;6.920;2023-11-21T08:36:09;12.40;99.90
3602;DHT22;1815;50.950;6.920;2023-11-21T08:38:35;12.40;99.90
3602;DHT22;1815;50.950;6.920;2023-11-21T08:41:05;12.40;99.90
3602;DHT22;1815;50.950;6.920;2023-11-21T08:43:37;12.40;99.90
3602;DHT22;1815;50.950;6.920;2023-11-21T08:46:06;12.50;99.90
3602;DHT22;1815;50.950;6.920;2023-11-21T08:48:35;12.50;99.90
3602;DHT22;1815;50.950;6.920;2023-11-21T08:51:01;12.50;99.90
3602;DHT22;1815;50.950;6.920;2023-11-21T08:53:27;12.50;99.90
3602;DHT22;1815;50.950;6.920;2023-11-21T08:55:53;12.50;99.90
3602;DHT22;1815;50.950;6.920;2023-11-21T08:58:19;12.50;99.90
3602;DHT22;1815;50.950;6.920;2023-11-21T09:00:45;12.60;99.90
3602;DHT22;1815;50.950;6.920;2023-11-21T09:03:12;12.60;99.90
3602;DHT22;1815;50.950;6.920;2023-11-21T09:05:39;12.60;99.90
3602;DHT22;1815;50.950;6.920;2023-11-21T09:08:05;12.60;99.90
3602;DHT22;1815;50.950;6.920;2023-11-21T09:10:31;12.60;99.90
3602;DHT22;1815;50.950;6.920;2023-11-21T09:12:57;12.60;99.90
3602;DHT22;1815;50.950;6.920;2023-11-21T09:15:24;12.70;99.90
3602;DHT22;1815;50.950;6.920;2023-11-21T09:17:50;12.70;99.90
3602;DHT22;1815;50.950;6.920;2023-11-21T09:20:16;12.70;99.90
3602;DHT22;1815;50.950;6.920;2023-11-21T09:22:43;12.80;99.90
3602;DHT22;1815;50.950;6.920;2023-11-21T09:25:10;12.80;99.90
3602;DHT22;1815;50.950;6.920;2023-11-21T09:27:36;12.80;99.90
3602;DHT22;1815;50.950;6.920;2023-11-21T09:30:02;12.90;99.90
3602;DHT22;1815;50.950;6.920;2023-11-21T09:32:31;12.90;99.90
3602;DHT22;1815;50.950;6.920;2023-11-21T09:34:56;12.90;99.90
3602;DHT22;1815;50.950;6.920;2023-11-21T09:37:24;12.90;99.90
3602;DHT22;1815;50.950;6.920;2023-11-21T09:39:50;12.90;99.90
3602;DHT22;1815;50.950;6.920;2023-11-21T09:42:19;12.90;99.90
3602;DHT22;1815;50.950;6.920;2023-11-21T09:45:05;13.00;99.90
3602;DHT22;1815;50.950;6.920;2023-11-21T09:47:35;12.90;99.90
3602;DHT22;1815;50.950;6.920;2023-11-21T09:50:03;13.00;99.90
3602;DHT22;1815;50.950;6.920;2023-11-21T09:52:31;13.00;99.90
3602;DHT22;1815;50.950;6.920;2023-11-21T09:54:58;13.00;99.90
3602;DHT22;1815;50.950;6.920;2023-11-21T09:57:25;13.00;99.90
3602;DHT22;1815;50.950;6.920;2023-11-21T09:59:52;12.90;99.90
3602;DHT22;1815;50.950;6.920;2023-11-21T10:02:26;12.90;99.90
3602;DHT22;1815;50.950;6.920;2023-11-21T10:04:55;12.90;99.90
3602;DHT22;1815;50.950;6.920;2023-11-21T10:07:22;13.00;99.90
3602;DHT22;1815;50.950;6.920;2023-11-21T10:09:50;13.00;99.90
3602;DHT22;1815;50.950;6.920;2023-11-21T10:12:17;13.00;99.90
3602;DHT22;1815;50.950;6.920;2023-11-21T10:14:43;13.10;99.90
3602;DHT22;1815;50.950;6.920;2023-11-21T10:17:13;13.10;99.90
3602;DHT22;1815;50.950;6.920;2023-11-21T10:19:42;13.10;99.90
3602;DHT22;1815;50.950;6.920;2023-11-21T10:22:08;13.20;99.90
3602;DHT22;1815;50.950;6.920;2023-11-21T10:24:35;13.20;99.90
3602;DHT22;1815;50.950;6.920;2023-11-21T10:27:03;13.30;99.90
3602;DHT22;1815;50.950;6.920;2023-11-21T10:29:29;13.30;99.90
3602;DHT22;1815;50.950;6.920;2023-11-21T10:31:56;13.40;99.90
3602;DHT22;1815;50.950;6.920;2023-11-21T10:34:25;13.40;99.90
3602;DHT22;1815;50.950;6.920;2023-11-21T10:36:53;13.40;99.90
3602;DHT22;1815;50.950;6.920;2023-11-21T10:39:19;13.40;99.90
3602;DHT22;1815;50.950;6.920;2023-11-21T10:41:49;13.40;99.90
3602;DHT22;1815;50.950;6.920;2023-11-21T10:44:17;13.40;99.90
3602;DHT22;1815;50.950;6.920;2023-11-21T10:46:50;13.40;99.90
3602;DHT22;1815;50.950;6.920;2023-11-21T10:49:23;13.40;99.90
3602;DHT22;1815;50.950;6.920;2023-11-21T10:51:51;13.50;99.90
3602;DHT22;1815;50.950;6.920;2023-11-21T10:54:23;13.50;99.90
3602;DHT22;1815;50.950;6.920;2023-11-21T10:56:50;13.50;99.90
3602;DHT22;1815;50.950;6.920;2023-11-21T10:59:17;13.60;99.90
3602;DHT22;1815;50.950;6.920;2023-11-21T11:01:46;13.60;99.90
3602;DHT22;1815;50.950;6.920;2023-11-21T11:04:18;13.60;99.90
3602;DHT22;1815;50.950;6.920;2023-11-21T11:06:44;13.60;99.90
3602;DHT22;1815;50.950;6.920;2023-11-21T11:09:13;13.60;99.90
3602;DHT22;1815;50.950;6.920;2023-11-21T11:11:42;13.60;99.90
3602;DHT22;1815;50.950;6.920;2023-11-21T11:14:13;13.60;99.90
3602;DHT22;1815;50.950;6.920;2023-11-21T11:16:40;13.60;99.90
3602;DHT22;1815;50.950;6.920;2023-11-21T11:19:10;13.50;99.90
3602;DHT22;1815;50.950;6.920;2023-11-21T11:22:07;13.50;99.90
3602;DHT22;1815;50.950;6.920;2023-11-21T11:24:53;13.50;99.90
3602;DHT22;1815;50.950;6.920;2023-11-21T11:33:29;13.50;99.90
3602;DHT22;1815;50.950;6.920;2023-11-21T11:38:45;13.60;99.90
3602;DHT22;1815;50.950;6.920;2023-11-21T11:41:11;13.60;99.90
3602;DHT22;1815;50.950;6.920;2023-11-21T11:43:37;13.60;99.90
3602;DHT22;1815;50.950;6.920;2023-11-21T11:46:12;13.60;99.90
3602;DHT22;1815;50.950;6.920;2023-11-21T11:48:39;13.60;99.90
3602;DHT22;1815;50.950;6.920;2023-11-21T11:51:15;13.50;99.90
3602;DHT22;1815;50.950;6.920;2023-11-21T11:53:43;13.60;99.90
3602;DHT22;1815;50.950;6.920;2023-11-21T11:56:31;13.60;99.90
3602;DHT22;1815;50.950;6.920;2023-11-21T11:59:03;13.60;99.90
3602;DHT22;1815;50.950;6.920;2023-11-21T12:01:33;13.70;99.90
3602;DHT22;1815;50.950;6.920;2023-11-21T12:06:41;13.60;99.90
3602;DHT22;1815;50.950;6.920;2023-11-21T12:09:19;13.70;99.90
3602;DHT22;1815;50.950;6.920;2023-11-21T12:11:46;13.60;99.90
3602;DHT22;1815;50.950;6.920;2023-11-21T12:14:13;13.60;99.90
3602;DHT22;1815;50.950;6.920;2023-11-21T12:16:39;13.60;99.90
3602;DHT22;1815;50.950;6.920;2023-11-21T12:19:05;13.60;99.90
3602;DHT22;1815;50.950;6.920;2023-11-21T12:21:31;13.60;99.90
3602;DHT22;1815;50.950;6.920;2023-11-21T12:23:58;13.60;99.90
3602;DHT22;1815;50.950;6.920;2023-11-21T12:26:27;13.60;99.90
3602;DHT22;1815;50.950;6.920;2023-11-21T12:28:53;13.60;99.90
3602;DHT22;1815;50.950;6.920;2023-11-21T12:31:22;13.60;99.90
3602;DHT22;1815;50.950;6.920;2023-11-21T12:33:49;13.60;99.90
3602;DHT22;1815;50.950;6.920;2023-11-21T12:36:15;13.60;99.90
3602;DHT22;1815;50.950;6.920;2023-11-21T12:38:41;13.60;99.90
3602;DHT22;1815;50.950;6.920;2023-11-21T12:41:08;13.60;99.90
3602;DHT22;1815;50.950;6.920;2023-11-21T12:43:34;13.60;99.90
3602;DHT22;1815;50.950;6.920;2023-11-21T12:46:09;13.50;99.90
3602;DHT22;1815;50.950;6.920;2023-11-21T12:48:39;13.50;99.90
3602;DHT22;1815;50.950;6.920;2023-11-21T12:51:07;13.50;99.90
3602;DHT22;1815;50.950;6.920;2023-11-21T12:53:34;13.50;99.90
3602;DHT22;1815;50.950;6.920;2023-11-21T12:56:09;13.50;99.90
3602;DHT22;1815;50.950;6.920;2023-11-21T12:58:40;13.50;99.90
3602;DHT22;1815;50.950;6.920;2023-11-21T13:01:10;13.50;99.90
3602;DHT22;1815;50.950;6.920;2023-11-21T13:03:40;13.50;99.90
3602;DHT22;1815;50.950;6.920;2023-11-21T13:06:06;13.50;99.90
3602;DHT22;1815;50.950;6.920;2023-11-21T13:08:33;13.50;99.90
3602;DHT22;1815;50.950;6.920;2023-11-21T13:10:59;13.60;99.90
3602;DHT22;1815;50.950;6.920;2023-11-21T13:13:28;13.60;99.90
3602;DHT22;1815;50.950;6.920;2023-11-21T13:15:56;13.60;99.90
3602;DHT22;1815;50.950;6.920;2023-11-21T13:18:26;13.70;99.90
3602;DHT22;1815;50.950;6.920;2023-11-21T13:20:56;13.70;99.90
3602;DHT22;1815;50.950;6.920;2023-11-21T13:23:23;13.70;99.90
3602;DHT22;1815;50.950;6.920;2023-11-21T13:25:49;13.70;99.90
3602;DHT22;1815;50.950;6.920;2023-11-21T13:28:16;13.70;99.90
3602;DHT22;1815;50.950;6.920;2023-11-21T13:30:43;13.70;99.90
3602;DHT22;1815;50.950;6.920;2023-11-21T13:33:10;13.70;99.90
3602;DHT22;1815;50.950;6.920;2023-11-21T13:35:43;13.80;99.90
3602;DHT22;1815;50.950;6.920;2023-11-21T13:38:17;13.80;99.90
3602;DHT22;1815;50.950;6.920;2023-11-21T13:40:52;13.80;99.90
3602;DHT22;1815;50.950;6.920;2023-11-21T13:43:21;13.80;99.90
3602;DHT22;1815;50.950;6.920;2023-11-21T13:45:48;13.90;99.90
3602;DHT22;1815;50.950;6.920;2023-11-21T13:48:23;13.80;99.90
3602;DHT22;1815;50.950;6.920;2023-11-21T13:51:11;13.80;99.90
3602;DHT22;1815;50.950;6.920;2023-11-21T13:53:46;13.80;99.90
3602;DHT22;1815;50.950;6.920;2023-11-21T13:56:18;13.80;99.90
3602;DHT22;1815;50.950;6.920;2023-11-21T13:58:49;13.80;99.90
3602;DHT22;1815;50.950;6.920;2023-11-21T14:01:20;13.90;99.90
3602;DHT22;1815;50.950;6.920;2023-11-21T14:04:09;13.80;99.90
3602;DHT22;1815;50.950;6.920;2023-11-21T14:06:47;13.80;99.90
3602;DHT22;1815;50.950;6.920;2023-11-21T14:09:23;13.80;99.90
3602;DHT22;1815;50.950;6.920;2023-11-21T14:11:58;13.80;99.90
3602;DHT22;1815;50.950;6.920;2023-11-21T14:14:26;13.80;99.90
3602;DHT22;1815;50.950;6.920;2023-11-21T14:16:54;13.80;99.90
3602;DHT22;1815;50.950;6.920;2023-11-21T14:19:24;13.80;99.90
3602;DHT22;1815;50.950;6.920;2023-11-21T14:21:55;13.80;99.90
3602;DHT22;1815;50.950;6.920;2023-11-21T14:24:23;13.80;99.90
3602;DHT22;1815;50.950;6.920;2023-11-21T14:26:50;13.80;99.90
3602;DHT22;1815;50.950;6.920;2023-11-21T14:29:17;13.80;99.90
3602;DHT22;1815;50.950;6.920;2023-11-21T14:31:46;13.80;99.90
3602;DHT22;1815;50.950;6.920;2023-11-21T14:34:12;13.80;99.90
3602;DHT22;1815;50.950;6.920;2023-11-21T14:36:39;13.80;99.90
3602;DHT22;1815;50.950;6.920;2023-11-21T14:39:08;13.80;99.90
3602;DHT22;1815;50.950;6.920;2023-11-21T14:41:41;13.70;99.90
3602;DHT22;1815;50.950;6.920;2023-11-21T14:44:09;13.80;99.90
3602;DHT22;1815;50.950;6.920;2023-11-21T14:46:38;13.70;99.90
3602;DHT22;1815;50.950;6.920;2023-11-21T14:49:05;13.70;99.90
3602;DHT22;1815;50.950;6.920;2023-11-21T14:51:51;13.70;99.90
3602;DHT22;1815;50.950;6.920;2023-11-21T14:54:30;13.60;99.90
3602;DHT22;1815;50.950;6.920;2023-11-21T14:57:09;13.70;99.90
3602;DHT22;1815;50.950;6.920;2023-11-21T14:59:47;13.70;99.90
3602;DHT22;1815;50.950;6.920;2023-11-21T15:02:20;13.70;99.90
3602;DHT22;1815;50.950;6.920;2023-11-21T15:05:06;13.60;99.90
3602;DHT22;1815;50.950;6.920;2023-11-21T15:07:34;13.60;99.90
3602;DHT22;1815;50.950;6.920;2023-11-21T15:09:59;13.60;99.90
3602;DHT22;1815;50.950;6.920;2023-11-21T15:12:25;13.60;99.90
3602;DHT22;1815;50.950;6.920;2023-11-21T15:14:56;13.60;99.90
3602;DHT22;1815;50.950;6.920;2023-11-21T15:17:23;13.60;99.90
3602;DHT22;1815;50.950;6.920;2023-11-21T15:19:53;13.50;99.90
3602;DHT22;1815;50.950;6.920;2023-11-21T15:22:19;13.50;99.90
3602;DHT22;1815;50.950;6.920;2023-11-21T15:24:45;13.50;99.90
3602;DHT22;1815;50.950;6.920;2023-11-21T15:27:13;13.40;99.90
3602;DHT22;1815;50.950;6.920;2023-11-21T15:29:40;13.30;99.90
3602;DHT22;1815;50.950;6.920;2023-11-21T15:32:06;13.30;99.90
3602;DHT22;1815;50.950;6.920;2023-11-21T15:34:33;13.20;99.90
3602;DHT22;1815;50.950;6.920;2023-11-21T15:36:59;13.10;99.90
3602;DHT22;1815;50.950;6.920;2023-11-21T15:39:25;13.10;99.90
3602;DHT22;1815;50.950;6.920;2023-11-21T15:41:56;13.00;99.90
3602;DHT22;1815;50.950;6.920;2023-11-21T15:44:22;13.00;99.90
3602;DHT22;1815;50.950;6.920;2023-11-21T15:46:49;12.90;99.90
3602;DHT22;1815;50.950;6.920;2023-11-21T15:49:14;12.90;99.90
3602;DHT22;1815;50.950;6.920;2023-11-21T15:51:43;12.90;99.90
3602;DHT22;1815;50.950;6.920;2023-11-21T15:54:19;12.80;99.90
3602;DHT22;1815;50.950;6.920;2023-11-21T15:56:49;12.80;99.90
3602;DHT22;1815;50.950;6.920;2023-11-21T15:59:15;12.70;99.90
3602;DHT22;1815;50.950;6.920;2023-11-21T16:01:44;12.70;99.90
3602;DHT22;1815;50.950;6.920;2023-11-21T16:04:13;12.70;99.90
3602;DHT22;1815;50.950;6.920;2023-11-21T16:06:46;12.60;99.90
3602;DHT22;1815;50.950;6.920;2023-11-21T16:09:13;12.60;99.90
3602;DHT22;1815;50.950;6.920;2023-11-21T16:12:08;12.60;99.90
3602;DHT22;1815;50.950;6.920;2023-11-21T16:14:37;12.60;99.90
3602;DHT22;1815;50.950;6.920;2023-11-21T16:17:11;12.50;99.90